Time;durP1;ratioP1;P1;durP2;ratioP2;P2;SDS_P1;SDS_P2;PMS_P1;PMS_P2;Temp;Humidity;BMP_temperature;BMP_pressure;BME280_temperature;BME280_humidity;BME280_pressure;Samples;Min_cycle;Max_cycle;Signal;HPM_P1;HPM_P2
2021/12/16 00:09:26;;;;;;;17.33;15.43;;;7.30;99.90;;;;;;5050849;28;20408;-58
2021/12/16 00:29:00;;;;;;;16.00;12.43;;;7.00;99.90;;;;;;5050214;28;20386;-58
2021/12/16 00:33:45;;;;;;;17.27;14.20;;;6.90;99.90;;;;;;5069838;28;20550;-58
2021/12/16 00:36:12;;;;;;;15.00;13.03;;;6.90;99.90;;;;;;5069941;28;20750;-58
2021/12/16 00:38:40;;;;;;;20.33;15.23;;;7.10;99.90;;;;;;5069782;28;20398;-58
2021/12/16 00:41:05;;;;;;;17.33;14.43;;;7.20;99.90;;;;;;5069330;28;20421;-58
2021/12/16 00:43:42;;;;;;;16.40;13.67;;;7.20;99.90;;;;;;5051936;28;20447;-58
2021/12/16 00:54:12;;;;;;;14.43;12.73;;;7.20;99.90;;;;;;5048918;28;20480;-59
2021/12/16 00:56:54;;;;;;;15.33;12.47;;;7.30;99.90;;;;;;5049100;28;20402;-59
2021/12/16 00:59:21;;;;;;;16.10;13.10;;;7.40;99.90;;;;;;5048717;28;20438;-59
2021/12/16 01:01:56;;;;;;;16.50;13.50;;;7.40;99.90;;;;;;5049270;28;20510;-59
2021/12/16 01:42:46;;;;;;;17.53;14.03;;;6.80;99.90;;;;;;5035335;28;20233;-59
2021/12/16 01:50:23;;;;;;;15.50;13.57;;;6.70;99.90;;;;;;5035672;28;20408;-56
2021/12/16 01:53:09;;;;;;;18.07;14.77;;;6.80;99.90;;;;;;5035617;28;20437;-55
2021/12/16 01:55:53;;;;;;;18.13;15.00;;;6.80;99.90;;;;;;5034932;28;20980;-57
2021/12/16 01:58:22;;;;;;;15.00;12.77;;;7.00;99.90;;;;;;5034809;28;20387;-58
2021/12/16 02:01:11;;;;;;;15.30;13.70;;;7.00;99.90;;;;;;5034537;28;20410;-58
2021/12/16 02:03:46;;;;;;;18.03;14.40;;;7.20;99.90;;;;;;5034797;28;20454;-56
2021/12/16 02:08:53;;;;;;;19.73;16.30;;;7.20;99.90;;;;;;5034618;28;20511;-55
2021/12/16 02:37:23;;;;;;;18.63;15.57;;;7.50;99.90;;;;;;5054040;28;20407;-59
2021/12/16 02:39:49;;;;;;;19.90;15.10;;;7.50;99.90;;;;;;5054224;28;20533;-59
2021/12/16 02:42:21;;;;;;;16.30;14.10;;;7.40;99.90;;;;;;5047568;28;20467;-59
2021/12/16 02:50:24;;;;;;;16.00;13.23;;;7.30;99.90;;;;;;5033957;28;20395;-59
2021/12/16 02:52:50;;;;;;;17.90;15.10;;;7.40;99.90;;;;;;5033489;28;20795;-59
2021/12/16 02:55:18;;;;;;;16.63;14.30;;;7.40;99.90;;;;;;5033387;28;20561;-57
2021/12/16 02:57:50;;;;;;;15.30;12.80;;;7.50;99.90;;;;;;5033734;28;20412;-59
2021/12/16 03:00:17;;;;;;;18.80;14.70;;;7.50;99.90;;;;;;5033516;28;20392;-59
2021/12/16 03:02:50;;;;;;;16.57;14.73;;;7.50;99.90;;;;;;5033636;28;20462;-59
2021/12/16 03:05:19;;;;;;;16.83;14.50;;;7.50;99.90;;;;;;5033876;28;20384;-59
2021/12/16 03:07:45;;;;;;;15.60;13.23;;;7.50;99.90;;;;;;5033649;28;20409;-58
2021/12/16 03:13:22;;;;;;;16.70;13.40;;;7.60;99.90;;;;;;5051610;23;20233;-51
2021/12/16 03:20:51;;;;;;;16.90;14.83;;;7.50;99.90;;;;;;5013881;28;20384;-52
2021/12/16 03:23:33;;;;;;;15.67;13.37;;;7.50;99.90;;;;;;5013515;28;20832;-51
2021/12/16 03:31:38;;;;;;;17.17;14.40;;;7.60;99.90;;;;;;5014155;28;20384;-54
2021/12/16 03:34:22;;;;;;;17.07;13.40;;;7.70;99.90;;;;;;5013947;28;20864;-53
2021/12/16 03:37:22;;;;;;;17.93;14.70;;;7.70;99.90;;;;;;5014543;28;20395;-55
2021/12/16 03:40:10;;;;;;;17.50;13.93;;;7.80;99.90;;;;;;5013635;28;20429;-54
2021/12/16 03:42:49;;;;;;;20.00;16.10;;;7.70;99.90;;;;;;5012255;28;20440;-54
2021/12/16 03:48:06;;;;;;;14.50;12.00;;;7.50;99.90;;;;;;5013678;28;20380;-55
2021/12/16 03:50:33;;;;;;;17.73;14.83;;;7.50;99.90;;;;;;5013472;28;20440;-55
2021/12/16 03:52:59;;;;;;;18.70;15.67;;;7.60;99.90;;;;;;5013359;28;20437;-53
2021/12/16 03:55:25;;;;;;;19.30;16.43;;;7.60;99.90;;;;;;5013633;28;20449;-52
2021/12/16 03:57:51;;;;;;;19.67;15.27;;;7.50;99.90;;;;;;5013752;28;20432;-54
2021/12/16 04:00:24;;;;;;;16.90;13.40;;;7.40;99.90;;;;;;5013259;28;20203;-54
2021/12/16 04:02:50;;;;;;;16.27;13.83;;;7.40;99.90;;;;;;5013380;28;20437;-56
2021/12/16 04:05:21;;;;;;;18.47;15.07;;;7.50;99.90;;;;;;5013538;28;20422;-56
2021/12/16 04:07:48;;;;;;;17.97;14.27;;;7.40;99.90;;;;;;5013686;28;20394;-53
2021/12/16 04:10:19;;;;;;;18.00;15.07;;;7.50;99.90;;;;;;5013545;28;20431;-56
2021/12/16 04:12:45;;;;;;;18.37;15.23;;;7.50;99.90;;;;;;5013184;28;20491;-57
2021/12/16 04:15:11;;;;;;;15.63;13.20;;;7.40;99.90;;;;;;5013015;28;20443;-56
2021/12/16 04:17:38;;;;;;;19.43;15.93;;;7.50;99.90;;;;;;5013227;28;20173;-53
2021/12/16 04:20:08;;;;;;;23.53;16.57;;;7.50;99.90;;;;;;5013121;28;20448;-56
2021/12/16 04:22:41;;;;;;;17.27;14.00;;;7.40;99.90;;;;;;5029611;28;20511;-55
2021/12/16 04:25:17;;;;;;;21.90;15.97;;;7.40;99.90;;;;;;5032971;28;20422;-55
2021/12/16 04:27:45;;;;;;;19.47;15.23;;;7.40;99.90;;;;;;5033084;28;20384;-54
2021/12/16 04:30:14;;;;;;;22.30;16.30;;;7.40;99.90;;;;;;5032614;28;20416;-54
2021/12/16 04:32:39;;;;;;;20.90;15.30;;;7.30;99.90;;;;;;5032995;28;20437;-55
2021/12/16 04:35:06;;;;;;;17.73;15.13;;;7.20;99.90;;;;;;5033117;28;20449;-57
2021/12/16 04:37:32;;;;;;;20.13;14.80;;;7.20;99.90;;;;;;5033322;28;20173;-55
2021/12/16 04:39:59;;;;;;;22.30;16.97;;;7.30;99.90;;;;;;5032768;28;20780;-51
2021/12/16 04:42:26;;;;;;;20.63;16.00;;;7.30;99.90;;;;;;5028467;28;20419;-55
2021/12/16 04:44:52;;;;;;;24.60;18.97;;;7.40;99.90;;;;;;5016182;28;20426;-52
2021/12/16 04:47:18;;;;;;;26.23;18.03;;;7.30;99.90;;;;;;5017095;28;20417;-53
2021/12/16 04:49:44;;;;;;;22.90;17.60;;;7.00;99.90;;;;;;5016723;28;20467;-51
2021/12/16 04:52:13;;;;;;;22.63;16.70;;;7.10;99.90;;;;;;5017410;28;20407;-52
2021/12/16 04:54:40;;;;;;;24.00;18.67;;;7.10;99.90;;;;;;5016603;28;20971;-52
2021/12/16 04:57:06;;;;;;;21.20;16.70;;;7.20;99.90;;;;;;5017045;28;20902;-53
2021/12/16 04:59:34;;;;;;;29.37;20.17;;;7.10;99.90;;;;;;5016197;28;20411;-52
2021/12/16 05:02:13;;;;;;;24.70;17.07;;;7.20;99.90;;;;;;5016610;28;20900;-53
2021/12/16 05:04:39;;;;;;;24.80;18.83;;;7.30;99.90;;;;;;5016691;28;20932;-52
2021/12/16 05:07:05;;;;;;;26.20;17.67;;;7.20;99.90;;;;;;5016510;28;20456;-53
2021/12/16 05:10:02;;;;;;;21.53;16.37;;;7.20;99.90;;;;;;5016353;28;20431;-53
2021/12/16 05:12:24;;;;;;;26.00;19.80;;;7.30;99.90;;;;;;5015989;28;20436;-54
2021/12/16 05:14:50;;;;;;;24.33;17.60;;;7.40;99.90;;;;;;5016241;28;20456;-54
2021/12/16 05:17:33;;;;;;;23.53;17.70;;;7.40;99.90;;;;;;5016245;28;20898;-51
2021/12/16 05:20:04;;;;;;;23.13;16.63;;;7.40;99.90;;;;;;5016195;28;20834;-55
2021/12/16 05:25:25;;;;;;;21.20;17.10;;;7.40;99.90;;;;;;5016547;28;20385;-52
2021/12/16 05:27:51;;;;;;;20.87;15.83;;;7.40;99.90;;;;;;5016566;28;20395;-57
2021/12/16 05:30:16;;;;;;;22.73;16.67;;;7.50;99.90;;;;;;5015507;28;20766;-53
2021/12/16 05:32:45;;;;;;;22.20;15.80;;;7.50;99.90;;;;;;5016033;28;20557;-53
2021/12/16 05:35:16;;;;;;;22.13;15.90;;;7.40;99.90;;;;;;5015918;28;20201;-54
2021/12/16 05:37:43;;;;;;;23.73;17.10;;;7.50;99.90;;;;;;5015953;28;20390;-54
2021/12/16 05:40:09;;;;;;;20.10;15.40;;;7.40;99.90;;;;;;5016022;28;20408;-54
2021/12/16 05:42:37;;;;;;;24.10;17.63;;;7.40;99.90;;;;;;5015404;28;20476;-57
2021/12/16 05:45:05;;;;;;;24.30;16.83;;;7.40;99.90;;;;;;5015230;28;20423;-54
2021/12/16 05:47:31;;;;;;;21.13;16.40;;;7.40;99.90;;;;;;5015567;28;20899;-53
2021/12/16 05:49:57;;;;;;;21.80;16.60;;;7.60;99.90;;;;;;5015768;28;20410;-55
2021/12/16 05:52:22;;;;;;;22.53;17.00;;;7.50;99.90;;;;;;5015676;28;20424;-54
2021/12/16 05:54:48;;;;;;;20.90;15.53;;;7.30;99.90;;;;;;5015953;28;20201;-56
2021/12/16 05:57:15;;;;;;;21.33;15.87;;;7.30;99.90;;;;;;5015422;28;20274;-55
2021/12/16 05:59:40;;;;;;;20.27;15.10;;;7.30;99.90;;;;;;5014948;28;20412;-56
2021/12/16 06:02:06;;;;;;;20.30;15.50;;;7.40;99.90;;;;;;5014062;28;20423;-56
2021/12/16 06:04:33;;;;;;;24.50;17.00;;;7.40;99.90;;;;;;5015244;28;20253;-53
2021/12/16 06:06:59;;;;;;;20.67;14.70;;;7.40;99.90;;;;;;5015234;28;20905;-54
2021/12/16 06:09:25;;;;;;;23.20;16.40;;;7.50;99.90;;;;;;5015337;28;20413;-58
2021/12/16 06:11:53;;;;;;;22.33;16.00;;;7.60;99.90;;;;;;5017390;28;20420;-53
2021/12/16 06:28:17;;;;;;;24.13;16.83;;;7.20;99.90;;;;;;5009136;28;20902;-55
2021/12/16 06:30:44;;;;;;;20.70;16.00;;;7.30;99.90;;;;;;5014638;28;20448;-56
2021/12/16 06:33:14;;;;;;;20.77;15.30;;;7.20;99.90;;;;;;5015042;28;20435;-54
2021/12/16 06:35:40;;;;;;;25.37;18.00;;;7.30;99.90;;;;;;5013976;28;20928;-52
2021/12/16 06:38:06;;;;;;;26.63;18.73;;;7.30;99.90;;;;;;5015076;28;20417;-54
2021/12/16 06:40:32;;;;;;;29.80;19.73;;;7.30;99.90;;;;;;5014687;28;20404;-54
2021/12/16 06:43:00;;;;;;;23.57;16.83;;;7.30;99.90;;;;;;5014648;28;20474;-54
2021/12/16 06:45:30;;;;;;;23.97;17.50;;;7.40;99.90;;;;;;5014450;28;20436;-50
2021/12/16 06:48:07;;;;;;;23.03;16.73;;;7.50;99.90;;;;;;5015177;28;20397;-55
2021/12/16 06:50:45;;;;;;;28.47;20.87;;;7.40;99.90;;;;;;5014503;28;20393;-56
2021/12/16 06:53:14;;;;;;;29.23;19.70;;;7.30;99.90;;;;;;5014479;28;20482;-55
2021/12/16 07:01:04;;;;;;;22.10;15.93;;;7.30;99.90;;;;;;5013945;28;20407;-53
2021/12/16 07:03:39;;;;;;;24.63;18.07;;;7.30;99.90;;;;;;5011891;28;20468;-51
2021/12/16 07:06:05;;;;;;;21.67;15.20;;;7.40;99.90;;;;;;5013634;28;20489;-56
2021/12/16 07:08:32;;;;;;;24.17;18.13;;;7.50;99.90;;;;;;5013836;28;20404;-50
2021/12/16 07:10:58;;;;;;;24.47;19.00;;;7.60;99.90;;;;;;5013279;28;20174;-53
2021/12/16 07:13:36;;;;;;;24.20;18.87;;;7.70;99.90;;;;;;5013484;28;20457;-52
2021/12/16 07:16:03;;;;;;;21.83;17.53;;;7.70;99.90;;;;;;5013899;28;20174;-53
2021/12/16 07:18:29;;;;;;;23.17;17.17;;;7.70;99.90;;;;;;5013389;28;20408;-54
2021/12/16 07:20:54;;;;;;;23.60;17.80;;;7.80;99.90;;;;;;5013534;28;20403;-54
2021/12/16 07:23:21;;;;;;;24.03;17.90;;;7.70;99.90;;;;;;5013718;28;20212;-51
2021/12/16 07:25:46;;;;;;;21.13;15.80;;;7.70;99.90;;;;;;5013588;28;20180;-55
2021/12/16 07:28:12;;;;;;;25.00;16.70;;;7.80;99.90;;;;;;5012410;28;20420;-55
2021/12/16 07:30:41;;;;;;;22.17;15.70;;;7.70;99.90;;;;;;5012110;28;20228;-51
2021/12/16 07:33:09;;;;;;;19.70;15.63;;;7.70;99.90;;;;;;5013302;28;20249;-58
2021/12/16 07:35:35;;;;;;;21.30;15.77;;;7.70;99.90;;;;;;5013816;28;20452;-57
2021/12/16 07:38:01;;;;;;;22.87;16.20;;;7.60;99.90;;;;;;5013834;28;20459;-57
2021/12/16 07:40:28;;;;;;;25.90;19.77;;;7.50;99.90;;;;;;5013862;28;20414;-57
2021/12/16 07:43:53;;;;;;;24.87;16.73;;;7.40;99.90;;;;;;5014012;28;20701;-58
2021/12/16 07:45:46;;;;;;;20.90;15.70;;;7.50;99.90;;;;;;5009590;28;20914;-58
2021/12/16 07:48:14;;;;;;;25.37;18.13;;;7.60;99.90;;;;;;5013863;28;20750;-57
2021/12/16 07:50:43;;;;;;;23.47;17.50;;;7.50;99.90;;;;;;5013908;28;20417;-57
2021/12/16 07:53:09;;;;;;;21.90;15.93;;;7.60;99.90;;;;;;5013426;28;20795;-58
2021/12/16 07:55:35;;;;;;;25.13;17.83;;;7.70;99.90;;;;;;5014286;28;20452;-58
2021/12/16 07:58:02;;;;;;;21.30;16.53;;;7.60;99.90;;;;;;5013723;28;20171;-58
2021/12/16 08:00:33;;;;;;;26.17;18.00;;;7.70;99.90;;;;;;5013869;28;20437;-56
2021/12/16 08:03:03;;;;;;;24.13;16.30;;;7.80;99.90;;;;;;5011927;28;20474;-59
2021/12/16 08:05:32;;;;;;;24.50;16.20;;;7.90;99.90;;;;;;5014255;28;20399;-57
2021/12/16 08:07:58;;;;;;;19.93;14.30;;;8.00;99.90;;;;;;5013698;28;20591;-58
2021/12/16 08:10:25;;;;;;;24.13;16.53;;;7.90;99.90;;;;;;5013825;28;20413;-58
2021/12/16 08:12:52;;;;;;;20.90;14.60;;;8.00;99.90;;;;;;5016081;28;20461;-58
2021/12/16 08:15:18;;;;;;;23.50;16.57;;;7.90;99.90;;;;;;5013493;28;20449;-57
2021/12/16 08:17:45;;;;;;;23.70;15.97;;;7.90;99.90;;;;;;5017846;28;20400;-56
2021/12/16 08:20:16;;;;;;;24.77;16.97;;;7.70;99.90;;;;;;5017046;28;20455;-57
2021/12/16 08:22:44;;;;;;;22.63;15.50;;;7.60;99.90;;;;;;5017424;28;20505;-57
2021/12/16 08:25:10;;;;;;;22.00;15.43;;;7.60;99.90;;;;;;5017564;28;20436;-57
2021/12/16 08:27:38;;;;;;;22.70;14.50;;;7.60;99.90;;;;;;5017562;28;20408;-57
2021/12/16 08:30:05;;;;;;;22.40;14.27;;;7.60;99.90;;;;;;5016711;28;20412;-56
2021/12/16 08:32:31;;;;;;;22.60;15.50;;;7.70;99.90;;;;;;5017261;28;20969;-56
2021/12/16 08:34:56;;;;;;;22.43;16.33;;;7.80;99.90;;;;;;5016842;28;20445;-54
2021/12/16 08:37:24;;;;;;;22.10;16.10;;;7.60;99.90;;;;;;5017227;28;20170;-58
2021/12/16 08:39:50;;;;;;;21.03;14.70;;;7.80;99.90;;;;;;5017609;28;20224;-57
2021/12/16 08:42:16;;;;;;;19.30;14.63;;;7.90;99.90;;;;;;5017188;28;20834;-59
2021/12/16 08:44:42;;;;;;;21.03;13.90;;;8.10;99.90;;;;;;5017077;28;20504;-58
2021/12/16 08:47:11;;;;;;;18.67;13.80;;;8.00;99.90;;;;;;5017649;28;20167;-58
2021/12/16 08:49:38;;;;;;;20.93;14.60;;;8.10;99.90;;;;;;5015553;28;20178;-57
2021/12/16 08:52:08;;;;;;;17.37;13.53;;;8.10;99.90;;;;;;5016770;28;20414;-57
2021/12/16 08:54:35;;;;;;;19.23;14.13;;;8.10;99.90;;;;;;5016655;28;20516;-58
2021/12/16 08:57:01;;;;;;;21.50;15.90;;;8.30;99.90;;;;;;5016943;28;20401;-58
2021/12/16 08:59:27;;;;;;;22.30;14.77;;;8.20;99.90;;;;;;5016390;28;20825;-57
2021/12/16 09:01:56;;;;;;;19.50;15.10;;;8.40;99.90;;;;;;5015543;28;20417;-58
2021/12/16 09:04:23;;;;;;;21.83;16.90;;;8.40;99.90;;;;;;5016277;28;20452;-57
2021/12/16 09:06:50;;;;;;;18.23;14.30;;;8.30;99.90;;;;;;5016621;28;20459;-58
2021/12/16 09:09:16;;;;;;;21.60;14.90;;;8.30;99.90;;;;;;5016499;28;20993;-58
2021/12/16 09:12:03;;;;;;;23.17;16.03;;;8.30;99.90;;;;;;5016326;28;20465;-58
2021/12/16 09:14:30;;;;;;;18.13;14.40;;;8.30;99.90;;;;;;5053273;23;20859;-59
2021/12/16 09:16:56;;;;;;;20.13;14.57;;;8.40;99.90;;;;;;5035922;28;20826;-54
2021/12/16 09:19:22;;;;;;;19.20;12.37;;;8.30;99.90;;;;;;5035487;28;20398;-59
2021/12/16 09:21:47;;;;;;;21.90;14.57;;;8.30;99.90;;;;;;5034486;28;20404;-60
2021/12/16 09:24:14;;;;;;;17.47;12.93;;;8.20;99.90;;;;;;5035650;28;20608;-59
2021/12/16 09:26:41;;;;;;;20.40;14.40;;;8.20;99.90;;;;;;5035421;28;20210;-56
2021/12/16 09:29:08;;;;;;;20.00;14.53;;;8.10;99.90;;;;;;5035222;28;20400;-58
2021/12/16 09:31:34;;;;;;;18.87;13.93;;;8.10;99.90;;;;;;5034801;28;20401;-58
2021/12/16 09:34:07;;;;;;;19.27;14.10;;;8.00;99.90;;;;;;5035067;28;20453;-59
2021/12/16 09:36:35;;;;;;;19.70;14.47;;;7.70;99.90;;;;;;5035516;28;20916;-59
2021/12/16 09:39:02;;;;;;;17.87;14.17;;;7.70;99.90;;;;;;5035462;28;20401;-59
2021/12/16 09:41:28;;;;;;;22.93;15.17;;;7.90;99.90;;;;;;5035377;28;20405;-59
2021/12/16 09:43:56;;;;;;;19.53;14.43;;;8.00;99.90;;;;;;5035397;28;20425;-58
2021/12/16 09:46:24;;;;;;;19.40;13.47;;;8.00;99.90;;;;;;5035135;28;20411;-56
2021/12/16 09:48:50;;;;;;;21.80;16.30;;;8.10;99.90;;;;;;5034769;28;20413;-58
2021/12/16 09:51:22;;;;;;;19.93;14.73;;;8.30;99.90;;;;;;5035249;28;20409;-59
2021/12/16 09:53:51;;;;;;;20.17;15.87;;;8.40;99.90;;;;;;5034705;28;20428;-56
2021/12/16 09:56:17;;;;;;;18.30;13.87;;;8.60;99.90;;;;;;5033644;28;20504;-56
2021/12/16 09:58:46;;;;;;;22.77;15.83;;;8.60;99.90;;;;;;5033293;28;20413;-57
2021/12/16 10:01:13;;;;;;;19.00;15.03;;;8.60;99.90;;;;;;5034253;28;20432;-58
2021/12/16 10:03:41;;;;;;;20.90;14.80;;;8.70;99.90;;;;;;5034529;28;20486;-52
2021/12/16 10:06:07;;;;;;;19.17;13.97;;;8.80;99.90;;;;;;5034815;28;20426;-57
2021/12/16 10:08:33;;;;;;;19.30;14.13;;;8.90;99.90;;;;;;5034902;28;20886;-56
2021/12/16 10:10:59;;;;;;;21.90;15.90;;;8.60;99.90;;;;;;5034985;28;20171;-58
2021/12/16 10:13:37;;;;;;;24.20;17.33;;;8.40;99.90;;;;;;5034885;28;20612;-57
2021/12/16 10:18:32;;;;;;;19.90;14.30;;;8.20;99.90;;;;;;5033234;28;20420;-58
2021/12/16 10:21:03;;;;;;;22.03;15.97;;;8.30;99.90;;;;;;5035248;28;20410;-57
2021/12/16 10:23:36;;;;;;;21.93;15.07;;;8.40;99.90;;;;;;5032598;28;20232;-59
2021/12/16 10:26:09;;;;;;;23.67;16.40;;;8.40;99.90;;;;;;5031332;28;20487;-54
2021/12/16 10:28:38;;;;;;;25.67;15.63;;;8.60;99.90;;;;;;5027516;28;20414;-57
2021/12/16 10:31:10;;;;;;;20.37;14.03;;;8.70;99.90;;;;;;5034179;28;20424;-55
2021/12/16 10:33:49;;;;;;;20.70;14.70;;;8.90;99.90;;;;;;5032952;28;20948;-57
2021/12/16 10:36:22;;;;;;;21.30;15.03;;;9.00;99.90;;;;;;5034159;28;20412;-57
2021/12/16 10:38:50;;;;;;;23.93;16.57;;;9.00;99.90;;;;;;5033695;28;20399;-57
2021/12/16 10:41:21;;;;;;;23.80;17.60;;;8.90;99.90;;;;;;5034470;28;20929;-57
2021/12/16 10:44:08;;;;;;;21.37;15.57;;;9.00;99.90;;;;;;5033206;28;20833;-56
2021/12/16 10:46:46;;;;;;;20.57;14.80;;;9.00;99.90;;;;;;5033909;28;20762;-57
2021/12/16 10:49:21;;;;;;;16.53;13.20;;;9.10;99.90;;;;;;5033982;28;20454;-56
2021/12/16 10:51:54;;;;;;;18.00;13.40;;;9.00;99.90;;;;;;5033063;28;20390;-57
2021/12/16 10:54:38;;;;;;;19.03;14.93;;;9.10;99.90;;;;;;5033375;28;20826;-57
2021/12/16 10:57:09;;;;;;;17.43;12.80;;;9.20;99.90;;;;;;5031774;28;20444;-57
2021/12/16 10:59:47;;;;;;;19.60;13.90;;;9.30;99.90;;;;;;5014463;28;20383;-56
2021/12/16 11:02:23;;;;;;;19.37;14.13;;;9.50;99.90;;;;;;5013918;28;20481;-57
2021/12/16 11:05:00;;;;;;;21.20;15.37;;;9.50;99.90;;;;;;5028258;28;20424;-57
2021/12/16 11:07:35;;;;;;;19.50;14.67;;;9.30;99.90;;;;;;5032954;28;20406;-55
2021/12/16 11:10:25;;;;;;;21.57;15.70;;;9.10;99.90;;;;;;5033530;28;20413;-58
2021/12/16 11:12:58;;;;;;;20.93;14.47;;;9.00;99.90;;;;;;5033288;28;20425;-58
2021/12/16 11:15:31;;;;;;;22.50;15.50;;;9.00;99.90;;;;;;5029567;28;20445;-57
2021/12/16 11:17:57;;;;;;;16.80;13.57;;;8.80;99.90;;;;;;5033509;28;20395;-56
2021/12/16 11:20:36;;;;;;;20.80;14.80;;;8.90;99.90;;;;;;5031803;28;20476;-57
2021/12/16 11:23:29;;;;;;;19.00;13.90;;;9.10;99.90;;;;;;5033405;28;20191;-57
2021/12/16 11:25:55;;;;;;;18.17;13.70;;;9.10;99.90;;;;;;5026763;28;20487;-58
2021/12/16 11:28:35;;;;;;;20.60;15.03;;;9.30;99.90;;;;;;5033310;28;20402;-58
2021/12/16 11:31:14;;;;;;;22.07;16.60;;;9.30;99.90;;;;;;5033204;28;20172;-58
2021/12/16 11:33:47;;;;;;;21.57;16.00;;;9.30;99.90;;;;;;5033415;28;20434;-58
2021/12/16 11:36:32;;;;;;;20.97;15.10;;;9.30;99.90;;;;;;5033575;28;20378;-58
2021/12/16 11:39:01;;;;;;;23.60;17.80;;;9.00;99.90;;;;;;5033571;28;20398;-58
2021/12/16 11:41:43;;;;;;;21.50;15.50;;;9.00;99.90;;;;;;5033511;28;20405;-57
2021/12/16 11:44:20;;;;;;;24.37;15.77;;;8.70;99.90;;;;;;5033419;28;20431;-57
2021/12/16 11:46:52;;;;;;;21.37;15.87;;;8.70;99.90;;;;;;5032971;28;20484;-56
2021/12/16 11:49:21;;;;;;;21.77;15.30;;;8.70;99.90;;;;;;5032703;28;20398;-56
2021/12/16 11:52:01;;;;;;;20.30;14.67;;;8.80;99.90;;;;;;5033324;28;20405;-58
2021/12/16 11:54:35;;;;;;;23.63;16.20;;;8.80;99.90;;;;;;5033226;28;20944;-58
2021/12/16 11:57:26;;;;;;;21.13;15.50;;;8.90;99.90;;;;;;5033213;28;21024;-57
2021/12/16 11:59:58;;;;;;;28.53;18.70;;;9.10;99.90;;;;;;5033215;28;20408;-58
2021/12/16 12:02:43;;;;;;;20.33;14.53;;;9.30;99.90;;;;;;5033059;28;20745;-57
2021/12/16 12:05:23;;;;;;;20.90;15.90;;;9.20;99.90;;;;;;5032504;28;20930;-57
2021/12/16 12:08:03;;;;;;;20.67;14.83;;;9.10;99.90;;;;;;5032955;28;20423;-58
2021/12/16 12:10:45;;;;;;;20.60;13.83;;;9.10;99.90;;;;;;5033032;28;20880;-57
2021/12/16 12:13:17;;;;;;;19.87;15.33;;;9.20;99.90;;;;;;5035265;28;20465;-57
2021/12/16 12:16:07;;;;;;;21.50;15.03;;;9.20;99.90;;;;;;5032842;28;20477;-57
2021/12/16 12:18:34;;;;;;;22.10;15.37;;;9.50;99.90;;;;;;5032851;28;20391;-58
2021/12/16 12:21:34;;;;;;;20.53;14.90;;;9.60;99.90;;;;;;5033863;28;20949;-54
2021/12/16 12:24:25;;;;;;;21.47;15.93;;;9.70;99.90;;;;;;5031617;28;20530;-57
2021/12/16 12:26:57;;;;;;;20.43;17.07;;;9.70;99.90;;;;;;5032386;28;20938;-58
2021/12/16 12:29:28;;;;;;;25.93;17.67;;;9.80;99.90;;;;;;5032997;28;20440;-56
2021/12/16 12:31:58;;;;;;;22.27;17.00;;;9.70;99.90;;;;;;5032468;28;20937;-56
2021/12/16 12:34:25;;;;;;;20.27;15.33;;;9.60;99.90;;;;;;5032635;28;20581;-56
2021/12/16 12:36:54;;;;;;;22.30;16.80;;;9.80;99.90;;;;;;5032709;28;20429;-56
2021/12/16 12:39:25;;;;;;;24.93;17.00;;;9.90;99.90;;;;;;5032912;28;20433;-57
2021/12/16 12:41:52;;;;;;;20.03;14.97;;;9.80;99.90;;;;;;5032290;28;20390;-57
2021/12/16 12:44:17;;;;;;;20.23;16.00;;;9.90;99.90;;;;;;5032594;28;20426;-57
2021/12/16 12:46:44;;;;;;;21.13;16.40;;;10.10;99.90;;;;;;5032456;28;20422;-57
2021/12/16 12:49:14;;;;;;;21.27;15.40;;;10.20;99.90;;;;;;5032282;28;20176;-58
2021/12/16 12:51:49;;;;;;;18.73;14.10;;;10.20;99.90;;;;;;5033249;28;20967;-57
2021/12/16 12:54:25;;;;;;;17.80;13.77;;;10.30;99.90;;;;;;5032228;28;20458;-56
2021/12/16 12:56:53;;;;;;;17.23;14.30;;;10.40;99.90;;;;;;5032757;28;20396;-57
2021/12/16 12:59:19;;;;;;;21.57;15.93;;;10.50;99.90;;;;;;5031364;28;20778;-55
2021/12/16 13:01:55;;;;;;;18.50;14.20;;;10.30;99.90;;;;;;5033141;28;20497;-56
2021/12/16 13:04:20;;;;;;;21.60;14.97;;;10.50;99.90;;;;;;5035776;28;20429;-58
2021/12/16 13:07:07;;;;;;;21.03;15.63;;;10.50;99.90;;;;;;5036108;28;20410;-56
2021/12/16 13:09:33;;;;;;;18.90;14.00;;;10.40;99.90;;;;;;5029203;28;20183;-58
2021/12/16 13:12:01;;;;;;;19.07;14.47;;;10.30;99.90;;;;;;5034942;28;20787;-56
2021/12/16 13:14:47;;;;;;;17.23;14.50;;;10.10;99.90;;;;;;5035564;28;20203;-56
2021/12/16 13:23:30;;;;;;;19.40;14.60;;;10.40;99.90;;;;;;5035986;28;20954;-58
2021/12/16 13:29:11;;;;;;;17.70;14.40;;;10.50;99.90;;;;;;5035669;28;20469;-58
2021/12/16 13:34:48;;;;;;;18.53;15.30;;;10.30;99.90;;;;;;5025381;28;20459;-58
2021/12/16 13:37:22;;;;;;;16.70;13.50;;;10.10;99.90;;;;;;5035821;28;20417;-57
2021/12/16 13:39:51;;;;;;;21.03;15.10;;;10.00;99.90;;;;;;5035626;28;20393;-57
2021/12/16 13:42:18;;;;;;;18.77;14.43;;;10.10;99.90;;;;;;5035486;28;20430;-58
2021/12/16 13:45:02;;;;;;;19.40;14.87;;;10.10;99.90;;;;;;5035482;28;20436;-58
2021/12/16 14:07:50;;;;;;;20.03;16.53;;;9.30;99.90;;;;;;5037481;28;20414;-58
2021/12/16 14:10:17;;;;;;;22.50;16.50;;;9.20;99.90;;;;;;5033807;28;20445;-58
2021/12/16 14:16:28;;;;;;;19.87;14.07;;;9.40;99.90;;;;;;5034629;28;20913;-59
2021/12/16 14:38:52;;;;;;;17.03;13.13;;;9.70;99.90;;;;;;5034679;28;20438;-59
2021/12/16 14:46:58;;;;;;;16.40;13.93;;;9.70;99.90;;;;;;5034295;28;20932;-58
2021/12/16 14:49:33;;;;;;;21.40;16.87;;;9.70;99.90;;;;;;5033824;28;20482;-59
2021/12/16 14:51:59;;;;;;;17.77;12.50;;;9.70;99.90;;;;;;5034102;28;20410;-59
2021/12/16 14:54:26;;;;;;;18.93;14.83;;;9.80;99.90;;;;;;5034063;28;20476;-58
2021/12/16 14:56:57;;;;;;;16.93;13.07;;;9.80;99.90;;;;;;5033917;28;20494;-58
2021/12/16 14:59:26;;;;;;;16.40;13.50;;;9.70;99.90;;;;;;5034425;28;20471;-58
2021/12/16 15:01:54;;;;;;;16.47;13.27;;;9.70;99.90;;;;;;5033577;28;20422;-58
2021/12/16 15:04:25;;;;;;;17.47;13.00;;;9.80;99.90;;;;;;5033097;28;20518;-54
2021/12/16 15:07:00;;;;;;;18.90;14.30;;;9.80;99.90;;;;;;5034020;28;20726;-56
2021/12/16 15:09:29;;;;;;;17.90;15.13;;;9.70;99.90;;;;;;5034003;28;20440;-57
2021/12/16 15:12:04;;;;;;;18.70;14.97;;;9.60;99.90;;;;;;5033587;28;20493;-57
2021/12/16 15:33:03;;;;;;;17.40;14.47;;;9.00;99.90;;;;;;4974910;28;20387;-62
2021/12/16 15:37:52;;;;;;;18.67;13.37;;;8.80;99.90;;;;;;4966415;28;20418;-62
2021/12/16 15:42:58;;;;;;;18.43;14.87;;;8.40;99.90;;;;;;4994354;28;20401;-62
2021/12/16 15:45:31;;;;;;;16.63;14.80;;;8.30;99.90;;;;;;4994270;28;20431;-62
2021/12/16 15:48:10;;;;;;;21.00;15.20;;;8.30;99.90;;;;;;4992352;28;20495;-63
2021/12/16 15:51:04;;;;;;;19.43;14.83;;;8.10;99.90;;;;;;4993529;28;20394;-63
2021/12/16 15:53:37;;;;;;;23.10;17.30;;;8.10;99.90;;;;;;4993411;28;20488;-63
2021/12/16 15:56:09;;;;;;;17.40;13.60;;;7.90;99.90;;;;;;4994170;28;20855;-62
2021/12/16 15:58:49;;;;;;;20.40;14.50;;;7.70;99.90;;;;;;4993397;28;20486;-62
2021/12/16 16:01:23;;;;;;;19.97;16.10;;;7.80;99.90;;;;;;4994178;28;20732;-61
2021/12/16 16:03:50;;;;;;;20.60;16.47;;;7.70;99.90;;;;;;4994289;28;20443;-62
2021/12/16 16:06:17;;;;;;;23.37;17.70;;;7.60;99.90;;;;;;4993572;28;20464;-61
2021/12/16 16:08:46;;;;;;;23.57;16.47;;;7.40;99.90;;;;;;4993930;28;20899;-62
2021/12/16 16:11:21;;;;;;;18.87;13.97;;;7.40;99.90;;;;;;4993976;28;20404;-62
2021/12/16 16:13:52;;;;;;;20.90;15.60;;;7.30;99.90;;;;;;4993799;28;20431;-62
2021/12/16 16:16:22;;;;;;;20.27;15.30;;;7.30;99.90;;;;;;4993936;28;20409;-60
2021/12/16 16:18:55;;;;;;;18.70;13.70;;;7.40;99.90;;;;;;4993833;28;20845;-63
2021/12/16 16:21:48;;;;;;;19.80;14.53;;;7.40;99.90;;;;;;4993466;28;20797;-63
2021/12/16 16:24:14;;;;;;;23.83;16.80;;;7.50;99.90;;;;;;4994545;28;20424;-64
2021/12/16 16:26:42;;;;;;;17.93;13.57;;;7.40;99.90;;;;;;4993910;28;20413;-62
2021/12/16 16:29:14;;;;;;;21.97;16.50;;;7.30;99.90;;;;;;4993829;28;20670;-64
2021/12/16 16:31:41;;;;;;;27.73;19.67;;;7.30;99.90;;;;;;4993481;28;20938;-62
2021/12/16 16:34:12;;;;;;;23.93;18.23;;;7.20;99.90;;;;;;4993252;28;20474;-63
2021/12/16 16:36:49;;;;;;;23.10;17.07;;;7.20;99.90;;;;;;4994131;28;20409;-63
2021/12/16 16:39:18;;;;;;;24.43;16.80;;;7.10;99.90;;;;;;4997467;28;20796;-62
2021/12/16 16:41:50;;;;;;;22.30;17.30;;;7.10;99.90;;;;;;4997176;28;20924;-63
2021/12/16 16:44:17;;;;;;;22.37;16.47;;;7.20;99.90;;;;;;4997218;28;20870;-63
2021/12/16 16:47:03;;;;;;;19.60;15.77;;;7.20;99.90;;;;;;4996950;28;20439;-63
2021/12/16 16:49:48;;;;;;;21.90;16.30;;;7.20;99.90;;;;;;4997307;28;20778;-62
2021/12/16 16:52:16;;;;;;;19.17;15.90;;;7.10;99.90;;;;;;4997198;28;20453;-63
2021/12/16 16:54:45;;;;;;;21.40;15.57;;;7.20;99.90;;;;;;4996691;28;20452;-63